Time;durP1;ratioP1;P1;durP2;ratioP2;P2;SDS_P1;SDS_P2;PMS_P1;PMS_P2;Temp;Humidity;BMP_temperature;BMP_pressure;BME280_temperature;BME280_humidity;BME280_pressure;Samples;Min_cycle;Max_cycle;Signal;HPM_P1;HPM_P2
2023/06/18 00:01:47;;;;;;;8.90;8.10;;;22.80;1.00;;;;;;5073386;28;20202;-64
2023/06/18 00:04:13;;;;;;;8.65;7.95;;;22.80;1.00;;;;;;5073540;28;20165;-64
2023/06/18 00:06:38;;;;;;;9.07;8.18;;;22.80;1.00;;;;;;5073505;28;20211;-64
2023/06/18 00:09:04;;;;;;;8.85;8.10;;;22.80;99.90;;;;;;5073008;28;20649;-64
2023/06/18 00:11:30;;;;;;;8.43;7.68;;;22.80;99.90;;;;;;5073397;28;20172;-64
2023/06/18 00:13:55;;;;;;;9.50;8.32;;;22.80;99.90;;;;;;5073428;28;20580;-64
2023/06/18 00:16:21;;;;;;;8.65;7.70;;;22.80;99.90;;;;;;5073364;28;20172;-64
2023/06/18 00:18:46;;;;;;;9.43;8.25;;;22.80;99.90;;;;;;5073301;28;20172;-64
2023/06/18 00:21:13;;;;;;;9.02;8.18;;;22.80;99.90;;;;;;5073250;28;20559;-63
2023/06/18 00:23:38;;;;;;;13.20;10.55;;;22.80;99.90;;;;;;5073035;28;20197;-63
2023/06/18 00:26:04;;;;;;;15.40;10.45;;;22.80;99.90;;;;;;5072974;28;20668;-64
2023/06/18 00:28:31;;;;;;;12.70;10.23;;;22.60;1.00;;;;;;5073153;28;20176;-64
2023/06/18 00:30:57;;;;;;;15.75;10.38;;;22.20;1.00;;;;;;5073175;28;20199;-63
2023/06/18 00:33:24;;;;;;;12.50;11.10;;;22.00;1.00;;;;;;5072870;28;20168;-63
2023/06/18 00:35:56;;;;;;;13.68;11.43;;;21.70;1.00;;;;;;5072954;28;20615;-65
2023/06/18 00:38:23;;;;;;;13.55;10.20;;;21.60;1.00;;;;;;5072648;28;20184;-64
2023/06/18 00:40:50;;;;;;;12.82;10.15;;;21.40;1.00;;;;;;5073008;28;20168;-63
2023/06/18 00:43:16;;;;;;;11.85;10.52;;;21.30;1.00;;;;;;5073092;28;20790;-63
2023/06/18 00:45:44;;;;;;;11.88;10.70;;;21.20;1.00;;;;;;5072966;28;20298;-63
2023/06/18 00:48:09;;;;;;;10.35;9.30;;;21.10;1.00;;;;;;5072861;28;20192;-64
2023/06/18 00:50:35;;;;;;;11.80;9.85;;;21.20;1.00;;;;;;5072944;28;20262;-63
2023/06/18 00:53:01;;;;;;;11.95;9.95;;;21.30;1.00;;;;;;5072575;28;20157;-63
2023/06/18 00:55:31;;;;;;;14.38;11.13;;;21.40;1.00;;;;;;5072853;28;20173;-63
2023/06/18 00:58:02;;;;;;;9.55;8.63;;;21.40;1.00;;;;;;5072869;28;20164;-63
2023/06/18 01:00:28;;;;;;;12.05;10.60;;;21.30;1.00;;;;;;5072896;28;20172;-63
2023/06/18 01:02:55;;;;;;;13.20;10.13;;;21.40;1.00;;;;;;5054775;28;20532;-63
2023/06/18 01:05:23;;;;;;;12.73;8.90;;;21.40;1.00;;;;;;5072665;28;20200;-63
2023/06/18 01:07:49;;;;;;;8.80;7.88;;;21.40;1.00;;;;;;5072377;28;20191;-63
2023/06/18 01:10:20;;;;;;;9.65;8.68;;;21.40;99.90;;;;;;5072856;28;20184;-63
2023/06/18 01:12:48;;;;;;;7.90;7.20;;;21.60;1.00;;;;;;5072880;28;20192;-63
2023/06/18 01:15:16;;;;;;;7.95;7.13;;;21.70;1.00;;;;;;5072745;28;20168;-64
2023/06/18 01:17:47;;;;;;;7.53;6.82;;;21.80;1.00;;;;;;5072570;28;20168;-64
2023/06/18 01:20:15;;;;;;;7.75;7.15;;;21.90;1.00;;;;;;5072580;28;20161;-64
2023/06/18 01:22:43;;;;;;;8.27;7.60;;;22.00;1.00;;;;;;5072356;28;20535;-64
2023/06/18 01:25:10;;;;;;;8.10;7.00;;;22.10;1.00;;;;;;5072629;28;20193;-64
2023/06/18 01:27:41;;;;;;;7.80;7.05;;;22.10;1.00;;;;;;5072334;28;20164;-64
2023/06/18 01:30:11;;;;;;;7.93;7.32;;;22.10;1.00;;;;;;5072128;28;20157;-64
2023/06/18 01:32:38;;;;;;;8.27;7.38;;;22.10;1.00;;;;;;5072509;28;20204;-64
2023/06/18 01:35:08;;;;;;;7.75;7.15;;;22.20;1.00;;;;;;5072397;28;20177;-64
2023/06/18 01:37:43;;;;;;;10.20;7.35;;;22.10;1.00;;;;;;5072351;28;20267;-64
2023/06/18 01:40:12;;;;;;;8.40;7.53;;;22.10;99.90;;;;;;5072518;28;20208;-64
2023/06/18 01:42:46;;;;;;;8.18;7.35;;;22.10;1.00;;;;;;5072484;28;20179;-64
2023/06/18 01:45:20;;;;;;;8.32;7.55;;;22.00;99.90;;;;;;5073194;28;20212;-64
2023/06/18 01:47:47;;;;;;;7.72;7.03;;;22.00;99.90;;;;;;5076114;28;20173;-64
2023/06/18 01:50:16;;;;;;;7.50;6.90;;;22.00;1.00;;;;;;5075746;28;20226;-64
2023/06/18 01:52:44;;;;;;;7.47;6.88;;;22.00;11.60;;;;;;5075915;28;20156;-64
2023/06/18 01:55:12;;;;;;;7.47;6.78;;;22.00;1.00;;;;;;5075851;28;20201;-64
2023/06/18 01:57:38;;;;;;;9.20;6.70;;;22.00;99.90;;;;;;5075555;28;20203;-63
2023/06/18 02:00:06;;;;;;;8.55;6.75;;;22.00;1.00;;;;;;5075797;28;20168;-63
2023/06/18 02:02:32;;;;;;;7.75;7.07;;;22.00;1.00;;;;;;5075953;28;20219;-63
2023/06/18 02:04:58;;;;;;;8.23;6.47;;;22.10;53.30;;;;;;5075486;28;20228;-63
2023/06/18 02:07:23;;;;;;;8.45;6.50;;;22.00;99.90;;;;;;5075795;28;20166;-63
2023/06/18 02:09:49;;;;;;;6.90;6.32;;;22.00;70.40;;;;;;5075673;28;20182;-63
2023/06/18 02:12:14;;;;;;;7.43;6.65;;;22.00;1.00;;;;;;5075477;28;20164;-63
2023/06/18 02:14:40;;;;;;;7.78;7.00;;;22.00;1.00;;;;;;5075557;28;20185;-63
2023/06/18 02:17:06;;;;;;;7.38;6.35;;;22.00;52.40;;;;;;5075473;28;20165;-64
2023/06/18 02:19:31;;;;;;;7.38;6.75;;;22.00;1.00;;;;;;5075072;28;20176;-64
2023/06/18 02:21:57;;;;;;;7.25;6.57;;;21.90;1.00;;;;;;5075453;28;20161;-64
2023/06/18 02:24:23;;;;;;;7.47;6.40;;;21.90;1.00;;;;;;5075587;28;20226;-63
2023/06/18 02:26:49;;;;;;;8.80;6.68;;;21.90;99.90;;;;;;5075318;28;20216;-64
2023/06/18 02:29:14;;;;;;;7.20;6.47;;;21.90;1.00;;;;;;5075363;28;20169;-64
2023/06/18 02:31:40;;;;;;;7.05;6.18;;;21.90;1.00;;;;;;5075149;28;20192;-63
2023/06/18 02:34:05;;;;;;;7.20;6.57;;;21.90;99.90;;;;;;5074977;28;20175;-63
2023/06/18 02:36:32;;;;;;;6.85;6.25;;;21.90;99.90;;;;;;5075057;28;20256;-63
2023/06/18 02:38:59;;;;;;;6.63;6.13;;;21.90;99.90;;;;;;5075194;28;20220;-63
2023/06/18 02:41:26;;;;;;;6.55;6.05;;;21.80;99.90;;;;;;5074935;28;20212;-63
2023/06/18 02:43:53;;;;;;;8.07;6.47;;;21.80;1.00;;;;;;5075206;28;20175;-63
2023/06/18 02:46:19;;;;;;;6.75;6.15;;;21.80;16.00;;;;;;5075102;28;20350;-64
2023/06/18 02:48:44;;;;;;;7.05;6.40;;;21.80;1.00;;;;;;5074716;28;20242;-63
2023/06/18 02:51:11;;;;;;;6.60;6.10;;;21.80;1.00;;;;;;5074953;28;20631;-62
2023/06/18 02:53:36;;;;;;;7.05;6.40;;;21.70;10.50;;;;;;5074892;28;20168;-62
2023/06/18 02:56:03;;;;;;;6.82;6.18;;;21.70;45.00;;;;;;5074824;28;20661;-63
2023/06/18 02:58:29;;;;;;;7.10;6.38;;;21.70;42.70;;;;;;5074616;28;20227;-63
2023/06/18 03:01:05;;;;;;;6.70;6.20;;;21.70;1.00;;;;;;5074595;28;20636;-63
2023/06/18 03:03:30;;;;;;;6.40;5.90;;;21.60;99.90;;;;;;5074317;28;20644;-63
2023/06/18 03:05:57;;;;;;;6.93;6.32;;;21.70;92.20;;;;;;5074584;28;20291;-63
2023/06/18 03:08:23;;;;;;;7.15;5.80;;;21.70;1.00;;;;;;5074123;28;20665;-63
2023/06/18 03:10:48;;;;;;;7.15;6.43;;;21.70;1.00;;;;;;5074570;28;20168;-63
2023/06/18 03:13:14;;;;;;;6.57;6.05;;;21.60;1.00;;;;;;5074485;28;20173;-63
2023/06/18 03:15:40;;;;;;;6.47;5.97;;;21.60;1.00;;;;;;5074368;28;20180;-63
2023/06/18 03:18:06;;;;;;;6.80;6.20;;;21.60;1.00;;;;;;5073606;28;20226;-63
2023/06/18 03:20:32;;;;;;;7.35;6.38;;;21.60;1.00;;;;;;5074236;28;20184;-63
2023/06/18 03:22:58;;;;;;;7.65;6.10;;;21.50;1.00;;;;;;5073787;28;20623;-63
2023/06/18 03:25:23;;;;;;;6.45;5.82;;;21.50;1.00;;;;;;5074053;28;20254;-63
2023/06/18 03:27:50;;;;;;;6.72;6.13;;;21.50;1.00;;;;;;5073801;28;20218;-63
2023/06/18 03:30:16;;;;;;;6.90;6.30;;;21.50;1.00;;;;;;5073985;28;20172;-63
2023/06/18 03:32:42;;;;;;;6.35;5.90;;;21.50;1.00;;;;;;5073600;28;20157;-64
2023/06/18 03:35:08;;;;;;;6.55;6.00;;;21.60;1.00;;;;;;5073932;28;20256;-64
2023/06/18 03:37:35;;;;;;;6.30;5.68;;;21.60;1.00;;;;;;5073658;28;20239;-63
2023/06/18 03:40:03;;;;;;;6.40;5.75;;;21.60;1.00;;;;;;5073741;28;20222;-63
2023/06/18 03:42:29;;;;;;;6.18;5.68;;;21.60;1.00;;;;;;5073641;28;20203;-63
2023/06/18 03:44:54;;;;;;;6.90;5.65;;;21.60;1.00;;;;;;5073352;28;20576;-62
2023/06/18 03:47:20;;;;;;;6.07;5.68;;;21.60;1.00;;;;;;5073233;28;20172;-64
2023/06/18 03:49:46;;;;;;;6.65;5.93;;;21.70;99.90;;;;;;5073409;28;20598;-64
2023/06/18 03:52:11;;;;;;;6.10;5.65;;;21.70;99.90;;;;;;5073591;28;20172;-64
2023/06/18 03:54:38;;;;;;;5.45;5.05;;;21.80;99.90;;;;;;5073343;28;20165;-64
2023/06/18 03:57:04;;;;;;;6.22;5.70;;;21.80;99.90;;;;;;5073286;28;20204;-64
2023/06/18 03:59:30;;;;;;;6.00;5.35;;;21.90;99.90;;;;;;5073584;28;20169;-64
2023/06/18 04:01:56;;;;;;;6.22;5.63;;;21.90;99.90;;;;;;5073167;28;20180;-64
2023/06/18 04:04:22;;;;;;;6.22;5.72;;;21.90;99.90;;;;;;5073425;28;20535;-64
2023/06/18 04:06:47;;;;;;;5.90;5.32;;;21.90;99.90;;;;;;5072914;28;20322;-63
2023/06/18 04:09:13;;;;;;;5.85;5.35;;;21.90;99.90;;;;;;5072816;28;20167;-63
2023/06/18 04:11:39;;;;;;;8.50;5.60;;;22.00;68.40;;;;;;5073206;28;20677;-63
2023/06/18 04:14:04;;;;;;;6.28;5.40;;;22.00;3.50;;;;;;5073359;28;20169;-63
2023/06/18 04:16:30;;;;;;;6.50;5.75;;;22.10;1.00;;;;;;5072739;28;20211;-64
2023/06/18 04:18:56;;;;;;;6.03;5.30;;;22.20;1.00;;;;;;5072894;28;20179;-64
2023/06/18 04:21:21;;;;;;;11.65;6.53;;;22.20;1.00;;;;;;5072893;28;20177;-63
2023/06/18 04:23:47;;;;;;;25.17;6.28;;;22.20;99.90;;;;;;5073357;28;20168;-64
2023/06/18 04:26:13;;;;;;;15.57;6.28;;;22.20;99.90;;;;;;5072688;28;20254;-63
2023/06/18 04:28:38;;;;;;;7.95;6.05;;;22.20;99.90;;;;;;5073184;28;20169;-64
2023/06/18 04:31:04;;;;;;;7.97;6.63;;;22.20;1.00;;;;;;5072742;28;20533;-64
2023/06/18 04:33:29;;;;;;;6.85;5.55;;;22.10;1.00;;;;;;5073019;28;20224;-63
2023/06/18 04:35:55;;;;;;;6.57;5.97;;;22.00;1.00;;;;;;5072485;28;20281;-63
2023/06/18 04:38:23;;;;;;;6.57;5.82;;;22.00;1.00;;;;;;5072996;28;20200;-64
2023/06/18 04:40:49;;;;;;;6.65;5.55;;;22.00;1.00;;;;;;5072709;28;20653;-64
2023/06/18 04:43:17;;;;;;;6.38;5.82;;;22.10;1.00;;;;;;5072879;28;20173;-64
2023/06/18 04:45:44;;;;;;;6.20;5.70;;;22.20;1.00;;;;;;5072535;28;20207;-64
2023/06/18 04:48:10;;;;;;;6.40;5.90;;;22.20;1.00;;;;;;5072475;28;20172;-64
2023/06/18 04:50:35;;;;;;;7.85;6.38;;;22.30;1.00;;;;;;5072484;28;20556;-63
2023/06/18 04:53:01;;;;;;;6.68;6.00;;;22.30;99.90;;;;;;5073012;28;20160;-63
2023/06/18 04:55:27;;;;;;;7.47;6.25;;;22.30;99.90;;;;;;5072879;28;20200;-64
2023/06/18 04:57:53;;;;;;;6.60;6.00;;;22.30;1.00;;;;;;5072230;28;20214;-65
2023/06/18 05:00:20;;;;;;;6.88;6.25;;;22.30;1.00;;;;;;5072396;28;20173;-63
2023/06/18 05:02:45;;;;;;;10.77;6.20;;;22.30;99.90;;;;;;5072754;28;20172;-63
2023/06/18 05:05:11;;;;;;;8.48;6.47;;;22.20;1.00;;;;;;5072333;28;20735;-64
2023/06/18 05:07:37;;;;;;;6.55;6.13;;;22.20;1.00;;;;;;5072282;28;20180;-64
2023/06/18 05:10:03;;;;;;;6.65;6.07;;;22.10;1.00;;;;;;5072603;28;20165;-64
2023/06/18 05:12:28;;;;;;;7.90;6.47;;;22.10;92.90;;;;;;5071868;28;20177;-64
2023/06/18 05:14:54;;;;;;;7.43;6.72;;;22.10;1.00;;;;;;5072581;28;20643;-64
2023/06/18 05:17:20;;;;;;;6.95;6.53;;;22.00;99.90;;;;;;5072516;28;20184;-64
2023/06/18 05:19:45;;;;;;;8.68;6.13;;;22.10;1.00;;;;;;5072503;28;20172;-64
2023/06/18 05:22:11;;;;;;;8.60;6.57;;;22.10;1.00;;;;;;5076026;28;20260;-63
2023/06/18 05:24:36;;;;;;;8.23;6.20;;;22.10;1.00;;;;;;5076382;28;20252;-64
2023/06/18 05:27:02;;;;;;;7.22;6.53;;;22.00;98.40;;;;;;5075902;28;20219;-63
2023/06/18 05:29:27;;;;;;;7.90;7.03;;;22.00;99.90;;;;;;5076583;28;20172;-64
2023/06/18 05:31:53;;;;;;;7.40;6.68;;;22.20;99.90;;;;;;5076201;28;20192;-64
2023/06/18 05:34:19;;;;;;;7.55;6.35;;;22.20;99.90;;;;;;5075906;28;20172;-65
2023/06/18 05:36:44;;;;;;;7.13;6.43;;;22.10;99.90;;;;;;5075592;28;20227;-64
2023/06/18 05:39:10;;;;;;;7.18;6.57;;;22.20;99.90;;;;;;5076096;28;20173;-64
2023/06/18 05:41:35;;;;;;;8.73;6.65;;;22.30;99.90;;;;;;5075489;28;20555;-64
2023/06/18 05:44:01;;;;;;;7.57;6.97;;;22.40;99.90;;;;;;5076101;28;20165;-64
2023/06/18 05:46:28;;;;;;;7.85;7.07;;;22.30;1.00;;;;;;5075259;28;20701;-64
2023/06/18 05:48:53;;;;;;;7.60;6.85;;;22.40;1.00;;;;;;5075049;28;20521;-64
2023/06/18 05:51:19;;;;;;;7.45;6.93;;;22.50;99.90;;;;;;5075622;28;20169;-64
2023/06/18 05:53:45;;;;;;;8.13;6.93;;;22.60;99.90;;;;;;5075682;28;20167;-64
2023/06/18 05:56:10;;;;;;;7.22;6.57;;;22.60;99.90;;;;;;5075234;28;20188;-65
2023/06/18 05:58:36;;;;;;;7.30;6.63;;;22.70;99.90;;;;;;5075337;28;20195;-65
2023/06/18 06:01:02;;;;;;;6.78;6.18;;;22.70;99.90;;;;;;5075716;28;20620;-65
2023/06/18 06:03:27;;;;;;;10.25;6.40;;;22.80;99.90;;;;;;5075686;28;20180;-65
2023/06/18 06:05:53;;;;;;;7.25;6.63;;;22.90;99.90;;;;;;5057354;28;20219;-64
2023/06/18 06:08:19;;;;;;;6.85;6.28;;;22.90;99.90;;;;;;5075229;28;20182;-64
2023/06/18 06:10:44;;;;;;;6.80;6.28;;;22.80;1.00;;;;;;5075322;28;20173;-65
2023/06/18 06:13:10;;;;;;;8.13;7.05;;;22.70;1.00;;;;;;5075269;28;20509;-63
2023/06/18 06:15:36;;;;;;;6.90;6.38;;;22.60;1.00;;;;;;5075536;28;20256;-64
2023/06/18 06:18:02;;;;;;;7.28;6.68;;;22.60;1.00;;;;;;5075341;28;20634;-63
2023/06/18 06:20:28;;;;;;;7.10;6.60;;;22.60;1.00;;;;;;5075133;28;20172;-64
2023/06/18 06:22:53;;;;;;;7.60;6.90;;;22.60;1.00;;;;;;5074840;28;20176;-63
2023/06/18 06:25:19;;;;;;;7.40;6.90;;;22.50;1.00;;;;;;5074427;28;20208;-65
2023/06/18 06:27:45;;;;;;;8.73;6.38;;;22.50;1.00;;;;;;5074909;28;20169;-63
2023/06/18 06:30:10;;;;;;;8.18;6.78;;;22.60;1.00;;;;;;5075210;28;20165;-63
2023/06/18 06:32:36;;;;;;;7.53;6.82;;;22.60;1.00;;;;;;5074522;28;20237;-63
2023/06/18 06:35:03;;;;;;;7.15;6.65;;;22.50;1.00;;;;;;5074671;28;20263;-64
2023/06/18 06:37:29;;;;;;;6.85;6.35;;;22.50;1.00;;;;;;5074680;28;20239;-64
2023/06/18 06:39:55;;;;;;;7.78;6.97;;;22.30;1.00;;;;;;5074434;28;20168;-64
2023/06/18 06:42:21;;;;;;;6.82;6.32;;;22.00;1.00;;;;;;5074610;28;20172;-64
2023/06/18 06:44:47;;;;;;;7.80;7.25;;;21.70;1.00;;;;;;5074986;28;20169;-64
2023/06/18 06:47:13;;;;;;;7.43;6.82;;;21.70;3.80;;;;;;5074482;28;20181;-64
2023/06/18 06:49:38;;;;;;;7.45;6.85;;;21.90;1.00;;;;;;5074582;28;20173;-64
2023/06/18 06:52:04;;;;;;;7.43;6.82;;;21.70;1.00;;;;;;5074704;28;20523;-64
2023/06/18 06:54:30;;;;;;;8.13;7.32;;;21.80;11.80;;;;;;5074144;28;20670;-64
2023/06/18 06:56:55;;;;;;;7.93;7.13;;;21.80;11.30;;;;;;5074686;28;20176;-64
2023/06/18 06:59:22;;;;;;;6.50;6.00;;;21.70;12.90;;;;;;5074412;28;20173;-66
2023/06/18 07:01:48;;;;;;;7.10;6.60;;;21.60;16.80;;;;;;5073929;28;20172;-66
2023/06/18 07:04:14;;;;;;;7.15;6.55;;;21.50;26.00;;;;;;5074424;28;20183;-65
2023/06/18 07:06:39;;;;;;;6.78;6.38;;;21.50;31.10;;;;;;5074337;28;20215;-64
2023/06/18 07:09:06;;;;;;;6.60;6.15;;;21.50;36.20;;;;;;5074042;28;20244;-64
2023/06/18 07:11:33;;;;;;;6.70;6.20;;;21.30;45.90;;;;;;5055495;28;20173;-66
2023/06/18 07:13:59;;;;;;;7.00;6.30;;;21.20;57.50;;;;;;5074295;28;20157;-66
2023/06/18 07:16:25;;;;;;;6.65;6.15;;;21.10;55.50;;;;;;5074206;28;20540;-65
2023/06/18 07:18:51;;;;;;;6.55;6.05;;;21.00;59.50;;;;;;5073996;28;20203;-65
2023/06/18 07:21:17;;;;;;;6.97;6.35;;;21.00;62.20;;;;;;5073825;28;20624;-65
2023/06/18 07:23:43;;;;;;;6.90;6.30;;;21.00;70.30;;;;;;5073264;28;20169;-66
2023/06/18 07:26:09;;;;;;;6.05;5.55;;;21.00;75.70;;;;;;5073480;28;20598;-65
2023/06/18 07:28:34;;;;;;;5.85;5.45;;;21.10;68.00;;;;;;5073855;28;20160;-65
2023/06/18 07:31:00;;;;;;;6.45;5.85;;;21.20;66.30;;;;;;5073970;28;20744;-66
2023/06/18 07:33:26;;;;;;;6.22;5.72;;;21.20;63.20;;;;;;5073999;28;20165;-65
2023/06/18 07:35:51;;;;;;;6.97;6.47;;;21.30;54.60;;;;;;5073352;28;20663;-66
2023/06/18 07:38:17;;;;;;;7.20;6.53;;;21.40;66.90;;;;;;5072854;28;20306;-66
2023/06/18 07:40:42;;;;;;;7.13;6.53;;;21.50;71.40;;;;;;5073436;28;20168;-66
2023/06/18 07:43:09;;;;;;;7.13;6.53;;;21.30;48.90;;;;;;5072854;28;20198;-65
2023/06/18 07:45:35;;;;;;;8.88;8.05;;;21.30;58.40;;;;;;5073608;28;21174;-65
2023/06/18 07:48:01;;;;;;;9.93;9.13;;;21.20;69.10;;;;;;5073692;28;20173;-65
2023/06/18 07:50:26;;;;;;;7.82;7.15;;;21.10;51.80;;;;;;5072891;28;20598;-66
2023/06/18 07:52:52;;;;;;;7.05;6.55;;;21.10;67.80;;;;;;5073255;28;20627;-66
2023/06/18 07:55:18;;;;;;;7.35;6.75;;;21.30;64.70;;;;;;5073184;28;20668;-65
2023/06/18 07:57:43;;;;;;;8.40;7.78;;;21.30;47.10;;;;;;5073268;28;20165;-65
2023/06/18 08:00:10;;;;;;;7.47;6.78;;;21.40;47.50;;;;;;5073333;28;20647;-67
2023/06/18 08:02:35;;;;;;;7.72;7.13;;;21.40;27.10;;;;;;5073113;28;20172;-66
2023/06/18 08:05:01;;;;;;;7.65;7.10;;;21.70;25.50;;;;;;5072928;28;20168;-67
2023/06/18 08:07:27;;;;;;;8.63;7.82;;;21.90;15.40;;;;;;5072909;28;20643;-66
2023/06/18 08:09:52;;;;;;;8.80;8.20;;;22.00;18.50;;;;;;5073219;28;20255;-66
2023/06/18 08:12:18;;;;;;;8.52;7.93;;;22.20;30.50;;;;;;5073080;28;20256;-66
2023/06/18 08:14:47;;;;;;;8.18;7.40;;;22.30;17.20;;;;;;5072773;28;20567;-66
2023/06/18 08:17:16;;;;;;;7.95;7.22;;;22.70;26.10;;;;;;5073265;28;20631;-67
2023/06/18 08:19:44;;;;;;;8.35;7.47;;;22.70;1.00;;;;;;5073074;28;20168;-66
2023/06/18 08:22:14;;;;;;;8.15;7.45;;;22.40;1.00;;;;;;5072527;28;20168;-65
2023/06/18 08:24:40;;;;;;;8.88;8.18;;;22.50;1.00;;;;;;5072752;28;20172;-66
2023/06/18 08:27:06;;;;;;;7.05;6.45;;;22.70;4.10;;;;;;5072802;28;20250;-65
2023/06/18 08:29:31;;;;;;;7.97;7.38;;;22.70;1.00;;;;;;5072829;28;20251;-66
2023/06/18 08:32:00;;;;;;;7.97;7.38;;;22.90;1.00;;;;;;5072874;28;20231;-65
2023/06/18 08:34:25;;;;;;;9.60;8.70;;;23.30;1.00;;;;;;5073217;28;20177;-67
2023/06/18 08:36:51;;;;;;;8.35;7.65;;;23.40;1.00;;;;;;5072070;28;20220;-66
2023/06/18 08:39:17;;;;;;;7.53;7.03;;;23.80;1.00;;;;;;5072956;28;20176;-67
2023/06/18 08:41:45;;;;;;;8.15;7.55;;;23.90;1.00;;;;;;5072739;28;20571;-67
2023/06/18 08:44:10;;;;;;;8.60;7.90;;;23.70;1.00;;;;;;5073118;28;20561;-66
2023/06/18 08:46:38;;;;;;;7.60;7.00;;;23.60;1.00;;;;;;5072734;28;20257;-66
2023/06/18 08:49:06;;;;;;;6.88;6.45;;;23.80;1.00;;;;;;5072395;28;20173;-66
2023/06/18 08:51:34;;;;;;;7.57;7.03;;;23.70;1.00;;;;;;5071627;28;20247;-65
2023/06/18 08:54:18;;;;;;;8.00;7.40;;;23.60;1.00;;;;;;5073268;28;20169;-65
2023/06/18 08:57:02;;;;;;;7.85;7.35;;;23.60;1.00;;;;;;5076807;28;20164;-67
2023/06/18 08:59:29;;;;;;;8.43;7.63;;;23.10;1.00;;;;;;5076484;28;20211;-65
2023/06/18 09:01:55;;;;;;;6.93;6.20;;;23.00;1.00;;;;;;5076657;28;20176;-67
2023/06/18 09:04:22;;;;;;;9.10;7.38;;;22.60;1.00;;;;;;5075702;28;20177;-67
2023/06/18 09:06:48;;;;;;;8.38;7.72;;;22.30;1.00;;;;;;5076563;28;20208;-66
2023/06/18 09:09:14;;;;;;;9.02;8.40;;;22.10;1.00;;;;;;5076760;28;20264;-66
2023/06/18 09:11:40;;;;;;;9.02;8.30;;;22.20;1.00;;;;;;5076321;28;20172;-65
2023/06/18 09:14:06;;;;;;;9.20;8.50;;;22.10;1.00;;;;;;5076503;28;20190;-66
2023/06/18 09:16:31;;;;;;;8.77;8.18;;;22.00;1.00;;;;;;5076249;28;20177;-65
2023/06/18 09:18:57;;;;;;;9.43;8.68;;;21.90;1.00;;;;;;5075750;28;20677;-67
2023/06/18 09:21:38;;;;;;;11.15;10.15;;;22.00;1.00;;;;;;5075480;28;20168;-66
2023/06/18 09:24:18;;;;;;;10.23;9.35;;;22.10;16.70;;;;;;5076521;28;20195;-65
2023/06/18 09:26:44;;;;;;;9.82;8.98;;;22.00;26.50;;;;;;5075429;28;20232;-67
2023/06/18 09:29:11;;;;;;;9.73;8.10;;;21.90;10.50;;;;;;5076314;28;20223;-65
2023/06/18 09:31:41;;;;;;;9.63;8.80;;;21.80;11.80;;;;;;5075729;28;20185;-64
2023/06/18 09:34:15;;;;;;;9.57;8.77;;;21.80;18.60;;;;;;5075439;28;20263;-67
2023/06/18 09:36:41;;;;;;;10.18;9.25;;;21.80;17.50;;;;;;5075757;28;20216;-65
2023/06/18 09:39:15;;;;;;;9.65;8.70;;;21.90;16.40;;;;;;5075771;28;20165;-65
2023/06/18 09:41:41;;;;;;;10.43;9.48;;;22.00;6.90;;;;;;5075721;28;20173;-65
2023/06/18 09:44:07;;;;;;;10.07;9.15;;;22.00;33.00;;;;;;5075850;28;20168;-67
2023/06/18 09:46:33;;;;;;;10.38;9.57;;;22.10;21.20;;;;;;5075354;28;20226;-67
2023/06/18 09:49:00;;;;;;;10.43;9.43;;;22.30;20.20;;;;;;5075113;28;20173;-67
2023/06/18 09:51:26;;;;;;;11.98;10.77;;;22.50;14.10;;;;;;5075193;28;20173;-65
2023/06/18 09:53:56;;;;;;;13.18;11.90;;;22.60;19.20;;;;;;5075942;28;20693;-65
2023/06/18 09:56:22;;;;;;;11.68;10.68;;;23.00;13.30;;;;;;5075831;28;20179;-66
2023/06/18 09:58:48;;;;;;;11.57;10.48;;;23.10;14.50;;;;;;5075558;28;20526;-65
2023/06/18 10:01:19;;;;;;;10.90;10.00;;;23.00;1.60;;;;;;5075403;28;20179;-66
2023/06/18 10:03:45;;;;;;;10.73;9.93;;;23.30;1.00;;;;;;5074734;28;20643;-66
2023/06/18 10:06:11;;;;;;;11.55;10.55;;;23.50;1.00;;;;;;5073740;28;20204;-66
2023/06/18 10:08:42;;;;;;;10.88;9.90;;;23.60;1.00;;;;;;5074863;28;20244;-66
2023/06/18 10:11:09;;;;;;;9.38;8.68;;;23.70;1.00;;;;;;5075345;28;20632;-66
2023/06/18 10:14:07;;;;;;;9.65;8.73;;;23.70;1.00;;;;;;5075422;28;20169;-66
2023/06/18 10:16:34;;;;;;;9.77;9.07;;;23.70;1.00;;;;;;5074329;28;20180;-66
2023/06/18 10:19:05;;;;;;;9.10;8.40;;;23.70;1.00;;;;;;5074626;28;20205;-67
2023/06/18 10:21:33;;;;;;;9.60;8.80;;;23.80;1.00;;;;;;5074985;28;20172;-68
2023/06/18 10:24:15;;;;;;;10.95;10.15;;;23.70;1.00;;;;;;5075317;28;20636;-66
2023/06/18 10:26:42;;;;;;;11.77;10.73;;;23.70;1.00;;;;;;5075033;28;20287;-67
2023/06/18 10:29:10;;;;;;;12.15;11.07;;;24.00;1.00;;;;;;5075254;28;20169;-67
2023/06/18 10:31:37;;;;;;;11.20;10.18;;;23.50;1.00;;;;;;5074415;28;20193;-67
2023/06/18 10:34:03;;;;;;;10.65;9.77;;;23.60;1.00;;;;;;5075076;28;20164;-67
2023/06/18 10:36:29;;;;;;;11.13;10.13;;;23.30;1.00;;;;;;5074544;28;20228;-67
2023/06/18 10:38:57;;;;;;;11.50;10.35;;;23.20;1.00;;;;;;5074948;28;20619;-66
2023/06/18 10:41:23;;;;;;;11.15;10.15;;;23.40;1.00;;;;;;5056959;28;20531;-65
2023/06/18 10:43:53;;;;;;;10.60;9.77;;;23.60;1.00;;;;;;5074539;28;20173;-65
2023/06/18 10:46:20;;;;;;;11.40;10.40;;;23.60;1.00;;;;;;5056199;28;20208;-68
2023/06/18 10:49:11;;;;;;;11.30;10.25;;;23.60;1.00;;;;;;5073676;28;20161;-68
2023/06/18 10:51:37;;;;;;;10.65;9.75;;;23.60;1.00;;;;;;5074871;28;20169;-66
2023/06/18 10:54:23;;;;;;;11.32;10.43;;;23.50;1.00;;;;;;5074593;28;20175;-66
2023/06/18 10:56:53;;;;;;;11.18;10.38;;;23.20;1.00;;;;;;5074815;28;20229;-66
2023/06/18 10:59:42;;;;;;;12.45;11.30;;;23.00;1.00;;;;;;5074360;28;20165;-66
2023/06/18 11:02:08;;;;;;;12.50;11.20;;;23.10;1.00;;;;;;5074221;28;20161;-66
2023/06/18 11:04:34;;;;;;;11.27;10.35;;;23.30;1.00;;;;;;5073985;28;20203;-65
2023/06/18 11:07:26;;;;;;;12.30;11.30;;;23.30;1.00;;;;;;5074000;28;20208;-66
2023/06/18 11:09:58;;;;;;;12.88;11.68;;;23.20;1.00;;;;;;5074066;28;20160;-65
2023/06/18 11:12:31;;;;;;;11.90;10.90;;;23.40;1.00;;;;;;5073951;28;20172;-67
2023/06/18 11:15:20;;;;;;;12.00;10.90;;;23.60;1.00;;;;;;5073749;28;20164;-66
2023/06/18 11:17:49;;;;;;;12.43;11.32;;;23.40;1.00;;;;;;5072907;28;20263;-66
2023/06/18 11:20:16;;;;;;;12.43;11.43;;;23.30;5.90;;;;;;5073500;28;20260;-66
2023/06/18 11:22:42;;;;;;;13.27;12.18;;;23.20;1.00;;;;;;5074134;28;20271;-65
2023/06/18 11:25:12;;;;;;;14.32;12.88;;;23.30;3.50;;;;;;5073897;28;20199;-65
2023/06/18 11:27:44;;;;;;;13.85;12.63;;;23.40;4.10;;;;;;5073380;28;20173;-66
2023/06/18 11:30:12;;;;;;;14.40;13.15;;;23.50;14.00;;;;;;5073344;28;20173;-66
2023/06/18 11:32:42;;;;;;;13.80;12.60;;;23.40;17.20;;;;;;5073062;28;20255;-66
2023/06/18 11:35:10;;;;;;;14.60;13.15;;;23.00;23.80;;;;;;5073890;28;20310;-67
2023/06/18 11:37:38;;;;;;;16.60;14.95;;;23.00;39.50;;;;;;5072573;28;20251;-67
2023/06/18 11:40:07;;;;;;;14.93;13.43;;;23.10;34.30;;;;;;5073225;28;20169;-68
2023/06/18 11:42:34;;;;;;;15.50;14.18;;;23.30;37.10;;;;;;5073788;28;20211;-68
2023/06/18 11:45:02;;;;;;;15.02;13.73;;;23.60;22.50;;;;;;5073170;28;20161;-69
2023/06/18 11:47:29;;;;;;;15.20;13.68;;;23.60;18.10;;;;;;5073682;28;20169;-68
2023/06/18 11:49:55;;;;;;;14.93;13.45;;;23.70;15.00;;;;;;5072951;28;20176;-68
2023/06/18 11:52:22;;;;;;;15.15;13.52;;;23.60;20.40;;;;;;5073133;28;20225;-69
2023/06/18 11:54:49;;;;;;;15.75;14.25;;;23.90;20.50;;;;;;5073527;28;20169;-69
2023/06/18 11:57:20;;;;;;;14.50;13.32;;;24.10;15.70;;;;;;5072857;28;20175;-67
2023/06/18 11:59:49;;;;;;;14.98;13.68;;;24.20;11.00;;;;;;5072552;28;20203;-67
2023/06/18 12:02:23;;;;;;;15.85;14.43;;;24.40;1.00;;;;;;5073369;28;20176;-67
2023/06/18 12:04:50;;;;;;;16.10;14.60;;;24.80;1.00;;;;;;5072709;28;20195;-67
2023/06/18 12:07:20;;;;;;;14.75;13.35;;;24.90;1.00;;;;;;5072593;28;20556;-68
2023/06/18 12:09:47;;;;;;;15.45;14.05;;;25.10;1.00;;;;;;5072929;28;20210;-67
2023/06/18 12:12:36;;;;;;;15.45;14.15;;;25.10;1.00;;;;;;5072661;28;20214;-67
2023/06/18 12:15:19;;;;;;;14.57;13.48;;;25.00;1.00;;;;;;5073106;28;20191;-66
2023/06/18 12:18:03;;;;;;;13.30;12.20;;;25.10;1.00;;;;;;5073142;28;20173;-66
2023/06/18 12:20:30;;;;;;;11.75;10.77;;;25.80;1.00;;;;;;5072270;28;20168;-66
2023/06/18 12:22:56;;;;;;;11.38;10.48;;;25.70;1.00;;;;;;5072756;28;20628;-67
2023/06/18 12:25:24;;;;;;;10.88;9.98;;;25.50;1.00;;;;;;5073044;28;20258;-66
2023/06/18 12:27:50;;;;;;;11.90;11.00;;;25.70;1.00;;;;;;5072298;28;20176;-67
2023/06/18 12:30:17;;;;;;;11.38;10.57;;;26.00;1.00;;;;;;5072299;28;20524;-66
2023/06/18 12:33:00;;;;;;;11.55;10.75;;;26.00;1.00;;;;;;5072851;28;20235;-64
2023/06/18 12:35:25;;;;;;;11.38;10.30;;;25.70;1.00;;;;;;5073130;28;20188;-66
2023/06/18 12:37:51;;;;;;;11.80;10.80;;;25.90;1.00;;;;;;5072433;28;20231;-67
2023/06/18 12:40:25;;;;;;;10.90;10.07;;;26.30;1.00;;;;;;5072352;28;20175;-67
2023/06/18 12:42:51;;;;;;;11.40;10.50;;;26.50;1.00;;;;;;5072327;28;20168;-65
2023/06/18 12:45:26;;;;;;;11.85;10.77;;;26.80;1.00;;;;;;5072624;28;20183;-65
2023/06/18 12:47:53;;;;;;;11.82;10.75;;;26.40;1.00;;;;;;5072279;28;20255;-65
2023/06/18 12:50:24;;;;;;;12.15;10.95;;;26.10;1.00;;;;;;5072520;28;20164;-65